createdAt,value
2019-01-10T00:02:12.909Z,100688.16
2019-01-10T00:04:39.648Z,100685.69
2019-01-10T00:07:06.420Z,100686.22
2019-01-10T00:09:33.176Z,100684.28
2019-01-10T00:12:00.188Z,100687.49
2019-01-10T00:14:26.940Z,100689.88
2019-01-10T00:16:53.714Z,100698.95
2019-01-10T00:19:20.452Z,100696.77
2019-01-10T00:21:47.188Z,100698.41
2019-01-10T00:24:13.960Z,100704.70
2019-01-10T00:26:40.700Z,100708.18
2019-01-10T00:29:07.488Z,100704.59
2019-01-10T00:31:34.240Z,100709.22
2019-01-10T00:34:01.001Z,100708.52
2019-01-10T00:36:27.739Z,100713.94
2019-01-10T00:38:54.503Z,100709.64
2019-01-10T00:41:21.245Z,100708.65
2019-01-10T00:43:48.015Z,100710.63
2019-01-10T00:46:14.752Z,100712.24
2019-01-10T00:48:41.544Z,100710.12
2019-01-10T00:51:08.308Z,100716.38
2019-01-10T00:53:35.040Z,100713.62
2019-01-10T00:56:01.764Z,100722.70
2019-01-10T00:58:28.527Z,100721.42
2019-01-10T01:00:55.284Z,100723.91
2019-01-10T01:03:22.044Z,100724.77
2019-01-10T01:05:49.000Z,100724.49
2019-01-10T01:08:15.749Z,100726.09
2019-01-10T01:10:42.490Z,100735.73
2019-01-10T01:13:09.252Z,100735.89
2019-01-10T01:15:36.000Z,100735.81
2019-01-10T01:18:02.761Z,100737.80
2019-01-10T01:20:29.508Z,100742.40
2019-01-10T01:22:56.261Z,100741.41
2019-01-10T01:25:23.030Z,100743.39
2019-01-10T01:27:49.774Z,100745.42
2019-01-10T01:30:19.128Z,100749.23
2019-01-10T01:32:45.947Z,100749.61
2019-01-10T01:35:13.042Z,100748.98
2019-01-10T01:37:39.771Z,100759.86
2019-01-10T01:40:07.588Z,100761.85
2019-01-10T01:42:34.336Z,100767.61
2019-01-10T01:45:01.088Z,100771.08
2019-01-10T01:47:27.844Z,100775.39
2019-01-10T01:49:54.584Z,100780.47
2019-01-10T01:52:21.344Z,100784.53
2019-01-10T01:54:48.125Z,100789.95
2019-01-10T01:57:14.876Z,100788.88
2019-01-10T01:59:41.633Z,100798.31
2019-01-10T02:02:08.377Z,100797.12
2019-01-10T02:04:35.148Z,100806.17
2019-01-10T02:07:01.894Z,100802.13
2019-01-10T02:09:28.669Z,100799.24
2019-01-10T02:11:55.412Z,100803.94
2019-01-10T02:14:22.181Z,100806.87
2019-01-10T02:16:48.928Z,100801.81
2019-01-10T02:19:15.694Z,100804.16
2019-01-10T02:21:42.448Z,100809.58
2019-01-10T02:24:09.204Z,100809.05
2019-01-10T02:26:35.944Z,100812.23
2019-01-10T02:29:02.728Z,100810.63
2019-01-10T02:31:29.485Z,100804.06
2019-01-10T02:33:56.245Z,100807.25
2019-01-10T02:36:23.008Z,100807.33
2019-01-10T02:38:49.803Z,100810.03
2019-01-10T02:41:16.605Z,100800.23
2019-01-10T02:43:43.340Z,100803.92
2019-01-10T02:46:10.088Z,100800.77
2019-01-10T02:48:36.850Z,100802.05
2019-01-10T02:51:03.606Z,100804.75
2019-01-10T02:53:30.359Z,100809.59
2019-01-10T02:55:57.124Z,100803.31
2019-01-10T02:58:23.881Z,100802.72
2019-01-10T03:00:50.647Z,100803.05
2019-01-10T03:03:17.393Z,100799.92
2019-01-10T03:05:44.144Z,100800.23
2019-01-10T03:08:10.896Z,100807.56
2019-01-10T03:10:37.652Z,100800.45
2019-01-10T03:13:04.411Z,100797.58
2019-01-10T03:15:31.208Z,100799.70
2019-01-10T03:17:58.154Z,100802.05
2019-01-10T03:20:24.934Z,100803.42
2019-01-10T03:22:51.680Z,100801.59
2019-01-10T03:25:18.437Z,100809.75
2019-01-10T03:27:45.189Z,100793.66
2019-01-10T03:30:13.985Z,100797.14
2019-01-10T03:32:40.726Z,100802.41
2019-01-10T03:35:08.436Z,100795.91
2019-01-10T03:37:35.186Z,100789.66
2019-01-10T03:40:02.016Z,100787.22
2019-01-10T03:42:28.744Z,100795.30
2019-01-10T03:44:55.508Z,100795.67
2019-01-10T03:47:22.240Z,100796.45
2019-01-10T03:49:48.997Z,100790.95
2019-01-10T03:52:15.753Z,100786.39
2019-01-10T03:54:42.578Z,100787.68
2019-01-10T03:57:09.307Z,100800.88
2019-01-10T03:59:36.160Z,100805.19
2019-01-10T04:02:02.896Z,100794.92
2019-01-10T04:04:29.625Z,100795.30
2019-01-10T04:06:56.372Z,100786.85
2019-01-10T04:09:23.105Z,100793.11
2019-01-10T04:11:49.866Z,100797.36
2019-01-10T04:14:16.606Z,100789.05
2019-01-10T04:16:43.368Z,100799.69
2019-01-10T04:19:10.112Z,100798.98
2019-01-10T04:21:36.886Z,100801.76
2019-01-10T04:24:03.633Z,100795.12
2019-01-10T04:26:30.404Z,100796.63
2019-01-10T04:28:57.173Z,100797.98
2019-01-10T04:31:23.981Z,100790.16
2019-01-10T04:33:50.712Z,100801.17
2019-01-10T04:36:17.464Z,100803.41
2019-01-10T04:38:44.216Z,100805.61
2019-01-10T04:41:10.970Z,100807.97
2019-01-10T04:43:37.710Z,100817.70
2019-01-10T04:46:04.457Z,100811.98
2019-01-10T04:48:31.210Z,100813.77
2019-01-10T04:50:57.966Z,100814.41
2019-01-10T04:53:26.704Z,100811.36
2019-01-10T04:55:51.465Z,100811.52
2019-01-10T04:58:18.206Z,100821.33
2019-01-10T05:00:44.970Z,100822.53
2019-01-10T05:03:11.704Z,100827.22
2019-01-10T05:05:38.472Z,100828.00
2019-01-10T05:08:05.209Z,100823.41
2019-01-10T05:10:31.972Z,100833.02
2019-01-10T05:12:58.739Z,100838.52
2019-01-10T05:15:25.506Z,100842.69
2019-01-10T05:17:52.248Z,100827.05
2019-01-10T05:20:19.473Z,100844.56
2019-01-10T05:22:46.292Z,100846.59
2019-01-10T05:25:13.044Z,100848.58
2019-01-10T05:27:39.800Z,100846.75
2019-01-10T05:30:10.738Z,100855.73
2019-01-10T05:32:37.528Z,100845.63
2019-01-10T05:35:04.329Z,100838.02
2019-01-10T05:37:31.132Z,100865.17
2019-01-10T05:39:57.909Z,100859.00
2019-01-10T05:42:24.720Z,100865.55
2019-01-10T05:44:51.494Z,100853.34
2019-01-10T05:47:18.299Z,100869.19
2019-01-10T05:49:45.077Z,100862.53
2019-01-10T05:52:11.883Z,100872.88
2019-01-10T05:54:38.636Z,100869.35
2019-01-10T05:57:05.438Z,100855.20
2019-01-10T05:59:32.233Z,100870.39
2019-01-10T06:01:59.028Z,100871.01
2019-01-10T06:04:25.876Z,100869.64
2019-01-10T06:06:52.708Z,100886.24
2019-01-10T06:09:19.504Z,100885.79
2019-01-10T06:11:46.305Z,100890.47
2019-01-10T06:14:13.089Z,100894.41
2019-01-10T06:16:39.904Z,100891.59
2019-01-10T06:19:06.678Z,100891.81
2019-01-10T06:21:33.472Z,100889.62
2019-01-10T06:24:00.265Z,100892.13
2019-01-10T06:26:27.077Z,100892.72
2019-01-10T06:28:53.861Z,100890.23
2019-01-10T06:31:20.661Z,100899.91
2019-01-10T06:33:47.441Z,100908.88
2019-01-10T06:36:14.248Z,100912.67
2019-01-10T06:38:41.020Z,100912.88
2019-01-10T06:41:07.824Z,100914.01
2019-01-10T06:43:34.603Z,100914.25
2019-01-10T06:46:01.425Z,100916.14
2019-01-10T06:48:28.207Z,100919.22
2019-01-10T06:50:55.004Z,100924.73
2019-01-10T06:53:21.782Z,100916.59
2019-01-10T06:55:48.572Z,100925.70
2019-01-10T06:58:15.367Z,100927.91
2019-01-10T07:00:42.170Z,100925.27
2019-01-10T07:03:08.961Z,100926.09
2019-01-10T07:05:35.693Z,100929.27
2019-01-10T07:08:02.469Z,100937.49
2019-01-10T07:10:29.524Z,100940.16
2019-01-10T07:12:56.284Z,100938.42
2019-01-10T07:15:23.041Z,100940.67
2019-01-10T07:17:49.812Z,100954.80
2019-01-10T07:20:16.558Z,100946.77
2019-01-10T07:22:45.572Z,100945.19
2019-01-10T07:25:12.404Z,100955.09
2019-01-10T07:27:39.173Z,100963.91
2019-01-10T07:30:06.912Z,100960.97
2019-01-10T07:32:33.784Z,100965.52
2019-01-10T07:35:04.323Z,100967.31
2019-01-10T07:37:31.094Z,100966.43
2019-01-10T07:39:57.828Z,100962.72
2019-01-10T07:42:24.585Z,100960.61
2019-01-10T07:44:51.323Z,100968.84
2019-01-10T07:47:18.089Z,100979.11
2019-01-10T07:49:44.820Z,100979.77
2019-01-10T07:52:11.595Z,100972.52
2019-01-10T07:54:38.335Z,100982.86
2019-01-10T07:57:05.085Z,100983.16
2019-01-10T07:59:31.819Z,100980.84
2019-01-10T08:01:58.573Z,100975.92
2019-01-10T08:04:25.312Z,100984.75
2019-01-10T08:06:52.067Z,100986.79
2019-01-10T08:09:18.813Z,101003.32
2019-01-10T08:11:45.589Z,101011.39
2019-01-10T08:14:12.344Z,101006.87
2019-01-10T08:16:39.089Z,101014.12
2019-01-10T08:19:05.857Z,101014.41
2019-01-10T08:21:32.604Z,101016.98
2019-01-10T08:23:59.392Z,101015.66
2019-01-10T08:26:26.159Z,101021.23
2019-01-10T08:28:52.928Z,101029.55
2019-01-10T08:31:19.692Z,101024.86
2019-01-10T08:33:46.455Z,101023.81
2019-01-10T08:36:13.208Z,101028.58
2019-01-10T08:38:39.988Z,101033.17
2019-01-10T08:41:06.733Z,101027.46
2019-01-10T08:43:33.492Z,101034.84
2019-01-10T08:46:00.244Z,101044.83
2019-01-10T08:48:27.016Z,101037.03
2019-01-10T08:50:53.777Z,101051.61
2019-01-10T08:53:21.726Z,101040.15
2019-01-10T08:55:47.281Z,101036.97
2019-01-10T08:58:14.048Z,101037.81
2019-01-10T09:00:40.810Z,101040.29
2019-01-10T09:03:07.585Z,101045.89
2019-01-10T09:05:34.394Z,101048.47
2019-01-10T09:08:01.167Z,101040.30
2019-01-10T09:10:29.991Z,101052.45
2019-01-10T09:12:56.757Z,101052.09
2019-01-10T09:15:33.728Z,101054.79
2019-01-10T09:17:50.287Z,101055.86
2019-01-10T09:20:17.040Z,101056.47
2019-01-10T09:22:43.821Z,101064.17
2019-01-10T09:25:10.576Z,101065.53
2019-01-10T09:27:37.356Z,101064.69
2019-01-10T09:30:06.880Z,101070.61
2019-01-10T09:32:33.689Z,101072.25
2019-01-10T09:35:00.441Z,101079.68
2019-01-10T09:37:27.196Z,101077.86
2019-01-10T09:39:54.056Z,101086.69
2019-01-10T09:42:20.716Z,101085.79
2019-01-10T09:44:47.492Z,101090.16
2019-01-10T09:47:14.254Z,101086.77
2019-01-10T09:49:41.026Z,101084.27
2019-01-10T09:52:07.773Z,101095.21
2019-01-10T09:54:34.545Z,101099.36
2019-01-10T09:57:01.297Z,101096.27
2019-01-10T09:59:28.061Z,101097.33
2019-01-10T10:01:54.832Z,101103.14
2019-01-10T10:04:21.688Z,101102.39
2019-01-10T10:06:48.437Z,101108.35
2019-01-10T10:09:15.212Z,101116.97
2019-01-10T10:11:41.952Z,101113.34
2019-01-10T10:14:08.721Z,101116.97
2019-01-10T10:16:35.468Z,101119.70
2019-01-10T10:19:02.236Z,101111.63
2019-01-10T10:21:28.981Z,101124.11
2019-01-10T10:23:55.768Z,101120.66
2019-01-10T10:26:22.528Z,101119.91
2019-01-10T10:28:49.300Z,101123.63
2019-01-10T10:31:16.044Z,101118.92
2019-01-10T10:33:42.812Z,101116.06
2019-01-10T10:36:09.559Z,101123.11
2019-01-10T10:38:36.364Z,101114.94
2019-01-10T10:41:03.180Z,101112.38
2019-01-10T10:43:29.868Z,101110.63
2019-01-10T10:46:01.557Z,101101.17
2019-01-10T10:48:23.392Z,101114.44
2019-01-10T10:50:50.123Z,101114.50
2019-01-10T10:53:16.872Z,101111.67
2019-01-10T10:55:43.624Z,101118.97
2019-01-10T10:58:10.382Z,101109.97
2019-01-10T11:00:37.161Z,101116.25
2019-01-10T11:03:03.897Z,101106.36
2019-01-10T11:05:30.657Z,101116.25
2019-01-10T11:07:57.424Z,101107.33
2019-01-10T11:10:24.352Z,101104.70
2019-01-10T11:12:51.108Z,101106.48
2019-01-10T11:15:17.907Z,101106.11
2019-01-10T11:17:44.972Z,101098.48
2019-01-10T11:20:13.914Z,101099.83
2019-01-10T11:22:40.717Z,101106.94
2019-01-10T11:25:10.436Z,101108.22
2019-01-10T11:27:37.173Z,101100.73
2019-01-10T11:30:04.799Z,101104.45
2019-01-10T11:32:31.537Z,101103.98
2019-01-10T11:34:58.296Z,101110.42
2019-01-10T11:37:25.092Z,101101.50
2019-01-10T11:39:51.912Z,101100.14
2019-01-10T11:42:18.613Z,101097.97
2019-01-10T11:44:45.355Z,101106.64
2019-01-10T11:47:12.130Z,101089.34
2019-01-10T11:49:39.433Z,101099.62
2019-01-10T11:52:05.612Z,101090.70
2019-01-10T11:54:32.372Z,101094.48
2019-01-10T11:56:59.121Z,101088.14
2019-01-10T11:59:25.888Z,101091.91
2019-01-10T12:01:52.633Z,101099.41
2019-01-10T12:04:19.400Z,101082.61
2019-01-10T12:06:46.144Z,101090.69
2019-01-10T12:09:12.912Z,101088.73
2019-01-10T12:11:39.730Z,101089.84
2019-01-10T12:14:06.493Z,101090.55
2019-01-10T12:16:33.232Z,101082.55
2019-01-10T12:19:00.032Z,101088.89
2019-01-10T12:21:26.792Z,101091.91
2019-01-10T12:23:53.568Z,101077.63
2019-01-10T12:26:20.329Z,101093.44
2019-01-10T12:28:47.070Z,101079.82
2019-01-10T12:31:13.889Z,101088.00
2019-01-10T12:33:41.783Z,101084.72
2019-01-10T12:36:07.420Z,101085.09
2019-01-10T12:38:34.194Z,101079.41
2019-01-10T12:41:00.961Z,101074.27
2019-01-10T12:43:27.704Z,101083.10
2019-01-10T12:45:54.497Z,101075.55
2019-01-10T12:48:21.348Z,101076.84
2019-01-10T12:50:48.280Z,101076.67
2019-01-10T12:53:14.946Z,101080.20
2019-01-10T12:55:41.718Z,101079.87
2019-01-10T12:58:08.493Z,101088.65
2019-01-10T13:00:35.257Z,101077.75
2019-01-10T13:03:02.044Z,101085.41
2019-01-10T13:05:28.866Z,101081.91
2019-01-10T13:08:03.371Z,101077.99
2019-01-10T13:10:22.354Z,101091.16
2019-01-10T13:12:49.273Z,101082.70
2019-01-10T13:15:19.067Z,101082.68
2019-01-10T13:17:45.904Z,101079.27
2019-01-10T13:20:12.693Z,101081.92
2019-01-10T13:22:39.584Z,101090.93
2019-01-10T13:25:08.280Z,101087.13
2019-01-10T13:27:35.034Z,101083.59
2019-01-10T13:30:01.901Z,101092.36
2019-01-10T13:32:28.653Z,101094.03
2019-01-10T13:34:55.412Z,101092.06
2019-01-10T13:37:22.192Z,101102.55
2019-01-10T13:39:48.964Z,101102.92
2019-01-10T13:42:15.712Z,101099.53
2019-01-10T13:44:42.491Z,101100.42
2019-01-10T13:47:09.249Z,101104.37
2019-01-10T13:49:36.029Z,101101.13
2019-01-10T13:52:02.791Z,101103.99
2019-01-10T13:54:29.553Z,101097.92
2019-01-10T13:56:56.441Z,101102.09
2019-01-10T13:59:23.789Z,101105.58
2019-01-10T14:01:49.922Z,101112.22
2019-01-10T14:04:16.886Z,101112.05
2019-01-10T14:06:43.685Z,101113.73
2019-01-10T14:09:10.460Z,101117.27
2019-01-10T14:11:37.220Z,101104.27
2019-01-10T14:14:03.984Z,101114.94
2019-01-10T14:16:30.750Z,101111.55
2019-01-10T14:18:58.788Z,101105.78
2019-01-10T14:21:25.628Z,101120.61
2019-01-10T14:23:52.400Z,101110.56
2019-01-10T14:26:19.261Z,101110.73
2019-01-10T14:28:46.003Z,101116.70
2019-01-10T14:31:12.757Z,101120.55
2019-01-10T14:33:39.552Z,101120.26
2019-01-10T14:36:06.302Z,101134.55
2019-01-10T14:38:33.076Z,101126.38
2019-01-10T14:40:59.828Z,101125.70
2019-01-10T14:43:26.593Z,101132.05
2019-01-10T14:45:53.389Z,101127.63
2019-01-10T14:48:20.232Z,101126.86
2019-01-10T14:50:46.984Z,101146.31
2019-01-10T14:53:13.756Z,101140.50
2019-01-10T14:55:40.545Z,101144.01
2019-01-10T14:58:07.305Z,101151.11
2019-01-10T15:00:34.064Z,101143.93
2019-01-10T15:03:00.844Z,101154.54
2019-01-10T15:05:27.604Z,101150.91
2019-01-10T15:07:54.440Z,101149.80
2019-01-10T15:10:21.196Z,101153.94
2019-01-10T15:12:47.979Z,101153.30
2019-01-10T15:15:16.782Z,101150.66
2019-01-10T15:17:44.301Z,101159.79
2019-01-10T15:20:13.185Z,101159.91
2019-01-10T15:22:39.949Z,101155.34
2019-01-10T15:25:06.732Z,101159.98
2019-01-10T15:27:33.496Z,101155.30
2019-01-10T15:30:00.281Z,101151.29
2019-01-10T15:32:27.056Z,101161.00
2019-01-10T15:34:53.812Z,101163.64
2019-01-10T15:37:20.570Z,101161.95
2019-01-10T15:39:47.380Z,101156.97
2019-01-10T15:42:14.160Z,101155.48
2019-01-10T15:44:40.912Z,101163.98
2019-01-10T15:47:07.743Z,101169.19
2019-01-10T15:49:34.493Z,101168.39
2019-01-10T15:52:01.288Z,101169.90
2019-01-10T15:54:28.066Z,101167.30
2019-01-10T15:57:00.518Z,101168.77
2019-01-10T15:59:21.644Z,101174.21
2019-01-10T16:01:48.451Z,101178.06
2019-01-10T16:04:15.211Z,101182.27
2019-01-10T16:06:42.024Z,101181.01
2019-01-10T16:09:08.908Z,101181.95
2019-01-10T16:11:35.712Z,101184.82
2019-01-10T16:14:02.477Z,101184.49
2019-01-10T16:16:29.308Z,101187.33
2019-01-10T16:18:56.147Z,101189.13
2019-01-10T16:21:22.909Z,101192.26
2019-01-10T16:23:49.668Z,101197.32
2019-01-10T16:26:16.422Z,101196.18
2019-01-10T16:28:43.196Z,101193.16
2019-01-10T16:31:09.954Z,101193.66
2019-01-10T16:33:36.854Z,101194.62
2019-01-10T16:36:03.591Z,101198.89
2019-01-10T16:38:30.353Z,101206.78
2019-01-10T16:40:57.316Z,101205.31
2019-01-10T16:43:24.216Z,101215.32
2019-01-10T16:46:02.681Z,101204.97
2019-01-10T16:48:29.438Z,101217.25
2019-01-10T16:50:56.225Z,101208.62
2019-01-10T16:53:24.080Z,101213.42
2019-01-10T16:55:50.085Z,101210.71
2019-01-10T16:58:16.917Z,101208.29
2019-01-10T17:00:43.703Z,101205.69
2019-01-10T17:03:10.484Z,101205.84
2019-01-10T17:05:37.236Z,101202.94
2019-01-10T17:08:04.180Z,101208.02
2019-01-10T17:10:31.001Z,101213.68
2019-01-10T17:12:57.776Z,101223.23
2019-01-10T17:15:24.512Z,101217.09
2019-01-10T17:17:51.336Z,101220.57
2019-01-10T17:20:19.460Z,101226.39
2019-01-10T17:22:46.239Z,101218.99
2019-01-10T17:25:12.977Z,101225.84
2019-01-10T17:27:39.732Z,101227.68
2019-01-10T17:30:09.100Z,101227.44
2019-01-10T17:32:35.835Z,101231.83
2019-01-10T17:35:03.205Z,101230.00
2019-01-10T17:37:29.958Z,101236.13
2019-01-10T17:39:56.832Z,101234.02
2019-01-10T17:42:23.610Z,101235.59
2019-01-10T17:44:50.404Z,101240.64
2019-01-10T17:47:17.221Z,101237.39
2019-01-10T17:49:43.996Z,101239.43
2019-01-10T17:52:10.743Z,101237.11
2019-01-10T17:54:37.512Z,101238.15
2019-01-10T17:57:04.284Z,101244.02
2019-01-10T17:59:31.038Z,101239.89
2019-01-10T18:01:57.787Z,101245.41
2019-01-10T18:04:24.578Z,101243.73
2019-01-10T18:06:51.320Z,101249.32
2019-01-10T18:09:18.212Z,101246.06
2019-01-10T18:11:44.961Z,101254.31
2019-01-10T18:14:11.736Z,101251.95
2019-01-10T18:16:38.496Z,101259.41
2019-01-10T18:19:05.272Z,101261.31
2019-01-10T18:21:32.025Z,101264.02
2019-01-10T18:23:58.815Z,101262.91
2019-01-10T18:26:25.576Z,101263.50
2019-01-10T18:28:52.336Z,101258.16
2019-01-10T18:31:19.148Z,101257.09
2019-01-10T18:33:45.975Z,101255.73
2019-01-10T18:36:12.748Z,101255.11
2019-01-10T18:38:39.518Z,101258.16
2019-01-10T18:41:06.269Z,101257.05
2019-01-10T18:43:33.032Z,101261.00
2019-01-10T18:45:59.804Z,101257.67
2019-01-10T18:48:26.542Z,101255.73
2019-01-10T18:50:53.308Z,101260.30
2019-01-10T18:53:20.056Z,101262.16
2019-01-10T18:55:46.820Z,101270.42
2019-01-10T18:58:13.561Z,101269.20
2019-01-10T19:00:40.329Z,101271.66
2019-01-10T19:03:07.077Z,101280.96
2019-01-10T19:05:33.848Z,101281.34
2019-01-10T19:08:00.598Z,101279.53
2019-01-10T19:10:27.356Z,101273.77
2019-01-10T19:12:54.144Z,101277.67
2019-01-10T19:15:20.897Z,101279.35
2019-01-10T19:17:47.658Z,101286.17
2019-01-10T19:20:17.930Z,101290.14
2019-01-10T19:22:44.713Z,101282.59
2019-01-10T19:25:11.477Z,101284.65
2019-01-10T19:27:38.211Z,101283.30
2019-01-10T19:30:08.820Z,101287.70
2019-01-10T19:32:35.575Z,101290.02
2019-01-10T19:35:02.424Z,101288.22
2019-01-10T19:37:29.168Z,101292.33
2019-01-10T19:39:55.954Z,101299.31
2019-01-10T19:42:23.711Z,101292.64
2019-01-10T19:44:49.480Z,101297.03
2019-01-10T19:47:16.216Z,101286.17
2019-01-10T19:49:42.992Z,101297.58
2019-01-10T19:52:09.777Z,101303.67
2019-01-10T19:54:36.540Z,101301.27
2019-01-10T19:57:03.302Z,101304.25
2019-01-10T19:59:30.065Z,101309.21
2019-01-10T20:01:56.833Z,101308.86
2019-01-10T20:04:23.584Z,101305.30
2019-01-10T20:06:50.371Z,101308.22
2019-01-10T20:09:17.125Z,101311.87
2019-01-10T20:11:43.905Z,101305.37
2019-01-10T20:14:10.662Z,101303.70
2019-01-10T20:16:37.438Z,101306.97
2019-01-10T20:19:04.190Z,101300.88
2019-01-10T20:21:30.964Z,101300.91
2019-01-10T20:23:57.802Z,101304.25
2019-01-10T20:26:24.558Z,101301.90
2019-01-10T20:28:51.284Z,101298.19
2019-01-10T20:31:18.053Z,101290.05
2019-01-10T20:33:44.808Z,101304.05
2019-01-10T20:36:11.598Z,101305.55
2019-01-10T20:38:38.348Z,101314.24
2019-01-10T20:41:05.108Z,101319.14
2019-01-10T20:43:31.864Z,101321.80
2019-01-10T20:45:58.658Z,101326.23
2019-01-10T20:48:25.404Z,101324.30
2019-01-10T20:50:52.192Z,101316.36
2019-01-10T20:53:18.936Z,101327.57
2019-01-10T20:55:45.688Z,101327.82
2019-01-10T20:58:12.453Z,101334.48
2019-01-10T21:00:39.193Z,101326.39
2019-01-10T21:03:05.963Z,101327.22
2019-01-10T21:05:32.712Z,101325.44
2019-01-10T21:07:59.544Z,101327.70
2019-01-10T21:10:26.309Z,101326.42
2019-01-10T21:12:53.073Z,101327.11
2019-01-10T21:15:22.065Z,101318.44
2019-01-10T21:17:49.258Z,101323.73
2019-01-10T21:20:23.936Z,101320.95
2019-01-10T21:22:50.376Z,101330.32
2019-01-10T21:25:17.156Z,101333.09
2019-01-10T21:27:43.925Z,101332.58
2019-01-10T21:30:12.840Z,101336.50
2019-01-10T21:32:40.995Z,101335.33
2019-01-10T21:35:06.632Z,101336.39
2019-01-10T21:37:33.408Z,101342.69
2019-01-10T21:40:00.227Z,101328.73
2019-01-10T21:42:26.929Z,101329.16
2019-01-10T21:44:53.728Z,101332.67
2019-01-10T21:47:20.493Z,101340.51
2019-01-10T21:49:47.253Z,101336.41
2019-01-10T21:52:14.016Z,101342.95
2019-01-10T21:54:40.772Z,101339.93
2019-01-10T21:57:07.544Z,101333.36
2019-01-10T21:59:34.280Z,101338.45
2019-01-10T22:02:01.128Z,101346.53
2019-01-10T22:04:27.897Z,101343.34
2019-01-10T22:06:54.652Z,101342.89
2019-01-10T22:09:21.404Z,101346.23
2019-01-10T22:11:48.184Z,101338.62
2019-01-10T22:14:14.924Z,101335.63
2019-01-10T22:16:41.665Z,101323.97
2019-01-10T22:19:08.432Z,101327.25
2019-01-10T22:21:35.172Z,101326.13
2019-01-10T22:24:01.933Z,101330.47
2019-01-10T22:26:28.684Z,101330.32
2019-01-10T22:28:55.468Z,101335.33
2019-01-10T22:31:22.284Z,101329.88
2019-01-10T22:33:49.156Z,101324.76
2019-01-10T22:36:15.909Z,101332.70
2019-01-10T22:38:42.674Z,101328.73
2019-01-10T22:41:09.424Z,101327.09
2019-01-10T22:43:36.207Z,101323.47
2019-01-10T22:46:02.946Z,101325.83
2019-01-10T22:48:29.725Z,101338.46
2019-01-10T22:50:56.477Z,101340.45
2019-01-10T22:53:23.247Z,101334.14
2019-01-10T22:55:49.997Z,101345.30
2019-01-10T22:58:16.764Z,101348.98
2019-01-10T23:01:01.072Z,101350.62
2019-01-10T23:03:27.895Z,101345.75
2019-01-10T23:05:54.651Z,101341.64
2019-01-10T23:08:21.423Z,101338.22
2019-01-10T23:10:48.169Z,101336.22
2019-01-10T23:13:14.941Z,101337.09
2019-01-10T23:15:41.696Z,101340.96
2019-01-10T23:18:08.472Z,101348.19
2019-01-10T23:20:35.217Z,101337.13
2019-01-10T23:23:04.620Z,101337.92
2019-01-10T23:25:31.360Z,101335.70
2019-01-10T23:27:58.133Z,101339.92
2019-01-10T23:30:44.456Z,101329.75
2019-01-10T23:33:11.234Z,101332.55
2019-01-10T23:35:38.009Z,101323.84
2019-01-10T23:38:08.584Z,101322.80
2019-01-10T23:40:35.507Z,101316.45
2019-01-10T23:43:02.288Z,101322.56
2019-01-10T23:45:29.052Z,101314.88
2019-01-10T23:47:55.806Z,101320.28
2019-01-10T23:50:22.572Z,101316.52
2019-01-10T23:52:49.320Z,101316.36
2019-01-10T23:55:16.103Z,101314.05
2019-01-10T23:57:42.852Z,101305.20
